Time;durP1;ratioP1;P1;durP2;ratioP2;P2;SDS_P1;SDS_P2;PMS_P1;PMS_P2;Temp;Humidity;BMP_temperature;BMP_pressure;BME280_temperature;BME280_humidity;BME280_pressure;Samples;Min_cycle;Max_cycle;Signal;HPM_P1;HPM_P2
2024/02/20 00:02:22;;;;;;;5.15;1.60;;;9.70;99.90;;;;;;5009656;28;20022;-50
2024/02/20 00:04:47;;;;;;;4.78;1.70;;;9.70;99.90;;;;;;5009092;28;20037;-47
2024/02/20 00:07:13;;;;;;;2.55;1.50;;;9.70;99.90;;;;;;5009614;28;20030;-53
2024/02/20 00:09:39;;;;;;;5.05;1.83;;;9.70;99.90;;;;;;5010078;28;20057;-51
2024/02/20 00:12:05;;;;;;;6.43;1.70;;;9.70;99.90;;;;;;5020843;28;20094;-56
2024/02/20 00:14:30;;;;;;;2.65;1.73;;;9.80;99.90;;;;;;5028996;28;20037;-55
2024/02/20 00:16:56;;;;;;;6.07;1.65;;;9.80;99.90;;;;;;5029294;28;20626;-49
2024/02/20 00:19:22;;;;;;;5.97;2.17;;;9.80;99.90;;;;;;5019196;28;20057;-52
2024/02/20 00:21:48;;;;;;;6.18;2.17;;;9.70;99.90;;;;;;5014435;28;20462;-51
2024/02/20 00:24:13;;;;;;;4.50;1.58;;;9.60;99.90;;;;;;5013680;28;20036;-53
2024/02/20 00:26:39;;;;;;;4.57;2.25;;;9.60;99.90;;;;;;5018888;28;20053;-51
2024/02/20 00:29:05;;;;;;;3.08;2.22;;;9.70;99.90;;;;;;5058242;23;20034;-53
2024/02/20 00:31:32;;;;;;;8.63;3.15;;;9.60;99.90;;;;;;5010360;28;20331;-55
2024/02/20 00:34:02;;;;;;;4.53;2.20;;;9.60;99.90;;;;;;5011836;28;20025;-54
2024/02/20 00:36:28;;;;;;;6.53;2.78;;;9.50;99.90;;;;;;4994512;28;20118;-53
2024/02/20 00:38:54;;;;;;;7.90;2.92;;;9.40;99.90;;;;;;5003291;28;20116;-55
2024/02/20 00:41:20;;;;;;;9.07;3.08;;;9.40;99.90;;;;;;5015381;28;20061;-54
2024/02/20 00:43:46;;;;;;;8.45;3.88;;;9.20;99.90;;;;;;5015320;28;20553;-51
2024/02/20 00:46:19;;;;;;;18.02;5.07;;;9.30;99.90;;;;;;5014934;28;20113;-54
2024/02/20 00:48:46;;;;;;;6.57;3.50;;;9.30;99.90;;;;;;5015309;28;20109;-51
2024/02/20 00:51:16;;;;;;;13.60;4.47;;;9.30;99.90;;;;;;5015143;28;20627;-50
2024/02/20 00:53:42;;;;;;;14.02;4.25;;;9.30;99.90;;;;;;5013778;28;20084;-52
2024/02/20 00:56:07;;;;;;;11.63;5.20;;;9.20;99.90;;;;;;5014959;28;20491;-52
2024/02/20 00:58:33;;;;;;;13.45;4.30;;;9.20;99.90;;;;;;5014951;28;20398;-52
2024/02/20 01:00:58;;;;;;;11.63;5.13;;;9.30;99.90;;;;;;5015155;28;20030;-54
2024/02/20 01:03:24;;;;;;;56.15;25.45;;;9.20;99.90;;;;;;5014930;28;20037;-55
2024/02/20 01:05:49;;;;;;;16.00;5.72;;;9.20;99.90;;;;;;5014749;28;20026;-51
2024/02/20 01:08:15;;;;;;;13.52;4.45;;;9.20;99.90;;;;;;5014892;28;20042;-53
2024/02/20 01:10:40;;;;;;;28.10;4.47;;;9.20;99.90;;;;;;5014779;28;20399;-58
2024/02/20 01:13:07;;;;;;;21.60;4.15;;;9.20;99.90;;;;;;5014564;28;20034;-53
2024/02/20 01:15:32;;;;;;;19.85;3.67;;;9.30;99.90;;;;;;5014419;28;20018;-53
2024/02/20 01:17:58;;;;;;;18.20;3.90;;;9.30;99.90;;;;;;5014758;28;20021;-56
2024/02/20 01:20:23;;;;;;;11.27;3.72;;;9.30;99.90;;;;;;5014547;28;20033;-54
2024/02/20 01:22:50;;;;;;;12.50;3.40;;;9.20;99.90;;;;;;4996834;28;20422;-54
2024/02/20 01:25:15;;;;;;;17.25;3.60;;;9.30;99.90;;;;;;4996887;28;20026;-54
2024/02/20 01:27:42;;;;;;;18.05;4.68;;;9.30;99.90;;;;;;5014243;28;20403;-51
2024/02/20 01:30:08;;;;;;;13.98;3.47;;;9.20;99.90;;;;;;5013746;28;20034;-54
2024/02/20 01:32:33;;;;;;;15.90;3.80;;;9.20;99.90;;;;;;5013615;28;20053;-53
2024/02/20 01:34:58;;;;;;;20.65;5.03;;;9.20;99.90;;;;;;5013978;28;20030;-54
2024/02/20 01:37:24;;;;;;;14.38;3.90;;;9.20;99.90;;;;;;5014140;28;20022;-54
2024/02/20 01:39:49;;;;;;;22.45;5.40;;;9.20;99.90;;;;;;5014147;28;20030;-54
2024/02/20 01:42:15;;;;;;;19.90;3.85;;;9.20;99.90;;;;;;4996400;28;20510;-53
2024/02/20 01:44:41;;;;;;;15.75;4.05;;;9.20;99.90;;;;;;5013924;28;20030;-54
2024/02/20 01:47:06;;;;;;;20.30;4.47;;;9.20;99.90;;;;;;5013941;28;20018;-53
2024/02/20 01:49:33;;;;;;;20.52;6.40;;;9.20;99.90;;;;;;5013919;28;20165;-57
2024/02/20 01:51:59;;;;;;;20.10;3.90;;;9.20;99.90;;;;;;5014061;28;20113;-54
2024/02/20 01:54:24;;;;;;;25.30;5.95;;;9.20;99.90;;;;;;5013711;28;20140;-52
2024/02/20 01:56:52;;;;;;;16.92;4.57;;;9.20;99.90;;;;;;5013661;28;20079;-52
2024/02/20 01:59:18;;;;;;;21.27;4.60;;;9.20;99.90;;;;;;5013930;28;20058;-50
2024/02/20 02:01:43;;;;;;;22.00;5.20;;;9.20;99.90;;;;;;5013888;28;20111;-54
2024/02/20 02:04:09;;;;;;;20.10;5.70;;;9.20;99.90;;;;;;5013816;28;20515;-53
2024/02/20 02:06:38;;;;;;;20.70;4.95;;;9.20;99.90;;;;;;5013534;28;20157;-51
2024/02/20 02:09:04;;;;;;;20.60;6.40;;;9.20;99.90;;;;;;5013645;28;20116;-54
2024/02/20 02:11:29;;;;;;;21.95;6.10;;;9.30;99.90;;;;;;5013532;28;20109;-55
2024/02/20 02:13:55;;;;;;;23.55;6.28;;;9.30;99.90;;;;;;5013299;28;20380;-55
2024/02/20 02:16:20;;;;;;;20.45;5.53;;;9.30;99.90;;;;;;5012114;28;20018;-51
2024/02/20 02:18:46;;;;;;;23.60;6.05;;;9.20;99.90;;;;;;5013695;28;20101;-54
2024/02/20 02:21:12;;;;;;;19.88;4.57;;;9.30;99.90;;;;;;5013385;28;20022;-54
2024/02/20 02:23:37;;;;;;;17.75;5.70;;;9.20;99.90;;;;;;5013530;28;20026;-49
2024/02/20 02:26:08;;;;;;;10.63;4.95;;;9.20;99.90;;;;;;5012913;28;20034;-55
2024/02/20 02:28:33;;;;;;;21.08;5.63;;;9.10;99.90;;;;;;5013220;28;20034;-54
2024/02/20 02:30:59;;;;;;;21.67;5.60;;;9.10;99.90;;;;;;5013149;28;20549;-50
2024/02/20 02:33:25;;;;;;;18.27;5.20;;;9.10;99.90;;;;;;5013101;28;20049;-53
2024/02/20 02:35:50;;;;;;;19.98;5.85;;;9.10;99.90;;;;;;5011421;28;20018;-55
2024/02/20 02:38:16;;;;;;;15.43;5.13;;;9.10;99.90;;;;;;4995457;28;20108;-53
2024/02/20 02:40:42;;;;;;;17.92;5.40;;;9.00;99.90;;;;;;5011640;28;20483;-56
2024/02/20 02:43:07;;;;;;;19.90;5.70;;;9.00;99.90;;;;;;5012929;28;20033;-56
2024/02/20 02:45:33;;;;;;;29.50;6.45;;;9.00;99.90;;;;;;5011481;28;20198;-56
2024/02/20 02:48:00;;;;;;;25.00;5.78;;;9.00;99.90;;;;;;5013045;28;20033;-53
2024/02/20 02:50:25;;;;;;;21.73;5.28;;;8.90;99.90;;;;;;4995121;28;20026;-51
2024/02/20 02:52:51;;;;;;;18.27;4.72;;;9.00;99.90;;;;;;5012654;28;20030;-53
2024/02/20 02:55:17;;;;;;;17.27;5.30;;;9.00;99.90;;;;;;5012610;28;20506;-56
2024/02/20 02:57:42;;;;;;;20.30;6.80;;;9.00;99.90;;;;;;4994870;28;20172;-55
2024/02/20 03:00:11;;;;;;;23.17;6.28;;;9.00;99.90;;;;;;5012734;28;20483;-50
2024/02/20 03:02:37;;;;;;;20.77;5.72;;;9.10;99.90;;;;;;5012668;28;20057;-53
2024/02/20 03:05:03;;;;;;;18.90;5.28;;;9.10;99.90;;;;;;5012827;28;20440;-53
2024/02/20 03:07:29;;;;;;;18.20;4.97;;;9.20;99.90;;;;;;5012441;28;20022;-54
2024/02/20 03:09:55;;;;;;;18.60;4.80;;;9.20;99.90;;;;;;5012385;28;20049;-51
2024/02/20 03:12:21;;;;;;;25.77;5.78;;;9.20;99.90;;;;;;4994730;28;20029;-53
2024/02/20 03:14:48;;;;;;;23.20;6.65;;;9.20;99.90;;;;;;5012285;28;20445;-51
2024/02/20 03:17:13;;;;;;;24.92;5.30;;;9.20;99.90;;;;;;5012231;28;20399;-53
2024/02/20 03:19:39;;;;;;;15.65;4.70;;;9.30;99.90;;;;;;4994672;28;20033;-53
2024/02/20 03:22:05;;;;;;;25.67;5.35;;;9.20;99.90;;;;;;5012326;28;20061;-50
2024/02/20 03:24:30;;;;;;;21.95;5.78;;;9.20;99.90;;;;;;5012145;28;20394;-51
2024/02/20 03:26:56;;;;;;;22.92;7.32;;;9.10;99.90;;;;;;5012174;28;20030;-54
2024/02/20 03:29:22;;;;;;;25.30;5.57;;;9.10;99.90;;;;;;5012436;28;20030;-53
2024/02/20 03:31:48;;;;;;;22.92;5.78;;;9.10;99.90;;;;;;5012220;28;20129;-57
2024/02/20 03:34:14;;;;;;;14.95;5.57;;;9.10;99.90;;;;;;5011611;28;20025;-53
2024/02/20 03:36:39;;;;;;;23.98;5.80;;;9.10;99.90;;;;;;5011919;28;20018;-52
2024/02/20 03:39:05;;;;;;;26.45;6.07;;;9.20;99.90;;;;;;5012005;28;20479;-52
2024/02/20 03:41:30;;;;;;;15.50;5.43;;;9.10;99.90;;;;;;5012147;28;20026;-57
2024/02/20 03:43:56;;;;;;;18.38;5.47;;;9.00;99.90;;;;;;5011964;28;20030;-55
2024/02/20 03:46:21;;;;;;;19.90;6.00;;;9.10;99.90;;;;;;5011719;28;20476;-53
2024/02/20 03:48:47;;;;;;;19.52;4.97;;;9.10;99.90;;;;;;5011899;28;20061;-53
2024/02/20 03:51:12;;;;;;;21.67;5.70;;;9.10;99.90;;;;;;5011820;28;20033;-56
2024/02/20 03:53:38;;;;;;;26.23;6.00;;;9.10;99.90;;;;;;5011144;28;20084;-48
2024/02/20 03:56:04;;;;;;;20.85;5.30;;;9.10;99.90;;;;;;5011560;28;20022;-55
2024/02/20 03:58:29;;;;;;;17.58;5.97;;;9.10;99.90;;;;;;5011729;28;20018;-56
2024/02/20 04:00:55;;;;;;;23.80;5.85;;;9.10;99.90;;;;;;5011603;28;20033;-56
2024/02/20 04:03:21;;;;;;;21.27;5.25;;;9.10;99.90;;;;;;5011702;28;20026;-54
2024/02/20 04:05:47;;;;;;;28.13;6.35;;;9.10;99.90;;;;;;5011483;28;20034;-55
2024/02/20 04:08:13;;;;;;;24.38;6.35;;;9.10;99.90;;;;;;4993970;28;20446;-55
2024/02/20 04:10:38;;;;;;;18.92;5.10;;;9.00;99.90;;;;;;5011544;28;20105;-50
2024/02/20 04:13:04;;;;;;;14.80;5.78;;;9.00;99.90;;;;;;5011426;28;20034;-51
2024/02/20 04:15:29;;;;;;;23.00;7.55;;;8.90;99.90;;;;;;5011161;28;20030;-55
2024/02/20 04:17:55;;;;;;;21.50;5.28;;;8.90;99.90;;;;;;5011595;28;20069;-53
2024/02/20 04:20:20;;;;;;;18.77;4.68;;;8.90;99.90;;;;;;5011489;28;20034;-51
2024/02/20 04:22:46;;;;;;;21.05;6.40;;;8.90;99.90;;;;;;5011497;28;20427;-51
2024/02/20 04:25:11;;;;;;;19.58;4.75;;;8.90;99.90;;;;;;5011336;28;20105;-55
2024/02/20 04:27:40;;;;;;;26.63;4.72;;;8.80;99.90;;;;;;5011352;28;20055;-54
2024/02/20 04:30:09;;;;;;;16.60;5.18;;;8.90;99.90;;;;;;5011081;28;20040;-56
2024/02/20 04:32:36;;;;;;;20.45;5.65;;;8.80;99.90;;;;;;5009987;28;20056;-55
2024/02/20 04:35:02;;;;;;;24.95;5.40;;;8.80;99.90;;;;;;5010860;28;20040;-53
2024/02/20 04:37:28;;;;;;;17.50;4.43;;;8.80;99.90;;;;;;5011162;28;20072;-55
2024/02/20 04:39:54;;;;;;;21.35;5.45;;;8.80;99.90;;;;;;4993677;28;20034;-53
2024/02/20 04:42:21;;;;;;;21.75;5.00;;;8.80;99.90;;;;;;5011257;28;20029;-55
2024/02/20 04:44:49;;;;;;;18.33;4.38;;;8.70;99.90;;;;;;5011416;28;20509;-53
2024/02/20 04:47:14;;;;;;;27.75;6.53;;;8.70;99.90;;;;;;5011089;28;20387;-53
2024/02/20 04:49:40;;;;;;;29.75;5.97;;;8.60;99.90;;;;;;5011162;28;20076;-53
2024/02/20 04:52:05;;;;;;;23.48;6.10;;;8.50;99.90;;;;;;5011229;28;20034;-54
2024/02/20 04:54:30;;;;;;;20.42;5.85;;;8.50;99.90;;;;;;5010980;28;20479;-54
2024/02/20 04:56:56;;;;;;;19.23;4.68;;;8.50;99.90;;;;;;5010976;28;20521;-52
2024/02/20 04:59:22;;;;;;;21.27;3.67;;;8.50;99.90;;;;;;5011089;28;20503;-51
2024/02/20 05:01:48;;;;;;;18.48;5.57;;;8.50;99.90;;;;;;5011126;28;20022;-52
2024/02/20 05:04:14;;;;;;;15.98;3.70;;;8.50;99.90;;;;;;5010964;28;20032;-53
2024/02/20 05:06:39;;;;;;;18.35;3.92;;;8.50;99.90;;;;;;5014341;28;20475;-53
2024/02/20 05:09:08;;;;;;;20.98;4.22;;;8.50;99.90;;;;;;4997022;28;20442;-56
2024/02/20 05:11:34;;;;;;;22.65;4.75;;;8.40;99.90;;;;;;5014805;28;20034;-53
2024/02/20 05:14:01;;;;;;;25.08;4.65;;;8.50;99.90;;;;;;5014359;28;20494;-52
2024/02/20 05:16:27;;;;;;;14.65;4.28;;;8.50;99.90;;;;;;5014482;28;20029;-54
2024/02/20 05:18:52;;;;;;;19.92;4.90;;;8.50;99.90;;;;;;5014618;28;20022;-54
2024/02/20 05:21:18;;;;;;;17.23;4.93;;;8.50;99.90;;;;;;5014440;28;20026;-52
2024/02/20 05:23:43;;;;;;;18.58;5.00;;;8.50;99.90;;;;;;5014317;28;20487;-53
2024/02/20 05:26:09;;;;;;;23.02;5.20;;;8.40;99.90;;;;;;4996687;28;20026;-53
2024/02/20 05:28:34;;;;;;;18.33;3.90;;;8.40;99.90;;;;;;5014381;28;20403;-51
2024/02/20 05:31:00;;;;;;;20.83;4.18;;;8.40;99.90;;;;;;5014221;28;20040;-51
2024/02/20 05:33:25;;;;;;;19.85;5.35;;;8.40;99.90;;;;;;5014449;28;20384;-52
2024/02/20 05:35:51;;;;;;;11.57;3.80;;;8.30;99.90;;;;;;5013635;28;20657;-50
2024/02/20 05:38:18;;;;;;;27.95;4.43;;;8.20;99.90;;;;;;5014235;28;20030;-50
2024/02/20 05:40:43;;;;;;;22.35;3.70;;;8.10;99.90;;;;;;5014252;28;20111;-49
2024/02/20 05:43:09;;;;;;;16.75;4.40;;;8.10;99.90;;;;;;5014126;28;20073;-52
2024/02/20 05:45:34;;;;;;;16.85;4.15;;;8.00;99.90;;;;;;5013913;28;20030;-54
2024/02/20 05:48:03;;;;;;;16.52;4.18;;;8.10;99.90;;;;;;5013922;28;20022;-53
2024/02/20 05:50:29;;;;;;;12.35;4.35;;;8.10;99.90;;;;;;5013674;28;20072;-53
2024/02/20 05:52:55;;;;;;;19.80;3.53;;;8.10;99.90;;;;;;5013747;28;20113;-58
2024/02/20 05:55:21;;;;;;;15.55;3.90;;;8.10;99.90;;;;;;5013615;28;20030;-54
2024/02/20 05:57:47;;;;;;;22.38;4.13;;;8.20;99.90;;;;;;5014187;28;20038;-53
2024/02/20 06:00:13;;;;;;;23.10;3.67;;;8.20;99.90;;;;;;5013689;28;20423;-52
2024/02/20 06:02:39;;;;;;;15.95;3.15;;;8.20;99.90;;;;;;4996045;28;20038;-54
2024/02/20 06:05:05;;;;;;;20.65;3.45;;;8.20;99.90;;;;;;5013916;28;20076;-53
2024/02/20 06:07:30;;;;;;;19.48;4.40;;;8.20;99.90;;;;;;5013494;28;20022;-55
2024/02/20 06:09:56;;;;;;;16.35;4.28;;;8.20;99.90;;;;;;5013805;28;20044;-54
2024/02/20 06:12:22;;;;;;;16.88;3.92;;;8.20;99.90;;;;;;5013775;28;20037;-54
2024/02/20 06:14:48;;;;;;;15.73;3.97;;;8.10;99.90;;;;;;4995818;28;20344;-53
2024/02/20 06:17:13;;;;;;;23.65;4.03;;;8.10;99.90;;;;;;5012793;28;20029;-52
2024/02/20 06:19:39;;;;;;;19.25;3.97;;;8.20;99.90;;;;;;5013244;28;20483;-53
2024/02/20 06:22:04;;;;;;;22.38;4.32;;;8.30;99.90;;;;;;5013332;28;20029;-53
2024/02/20 06:24:30;;;;;;;16.45;4.90;;;8.30;99.90;;;;;;5013310;28;20156;-54
2024/02/20 06:26:55;;;;;;;13.82;3.80;;;8.30;99.90;;;;;;5011755;28;20082;-52
2024/02/20 06:29:21;;;;;;;20.23;4.22;;;8.20;99.90;;;;;;5012967;28;20048;-51
2024/02/20 06:31:51;;;;;;;14.18;3.72;;;8.30;99.90;;;;;;5057618;23;20585;-53
2024/02/20 06:34:17;;;;;;;18.33;3.60;;;8.30;99.90;;;;;;5031333;28;20152;-51
2024/02/20 06:36:43;;;;;;;21.35;4.10;;;8.30;99.90;;;;;;5032885;28;20030;-53
2024/02/20 06:39:09;;;;;;;21.98;4.25;;;8.30;99.90;;;;;;5032790;28;20026;-51
2024/02/20 06:41:34;;;;;;;15.90;3.88;;;8.30;99.90;;;;;;5015001;28;20022;-54
2024/02/20 06:44:00;;;;;;;21.75;5.68;;;8.30;99.90;;;;;;5032643;28;20117;-50
2024/02/20 06:46:26;;;;;;;13.10;3.22;;;8.30;99.90;;;;;;5014703;28;20521;-54
2024/02/20 06:48:52;;;;;;;11.77;3.97;;;8.30;99.90;;;;;;5015122;28;20525;-53
2024/02/20 06:51:19;;;;;;;20.63;4.05;;;8.30;99.90;;;;;;5032737;28;20037;-49
2024/02/20 06:53:45;;;;;;;12.55;3.72;;;8.40;99.90;;;;;;5032307;28;20026;-54
2024/02/20 06:56:10;;;;;;;15.43;4.85;;;8.30;99.90;;;;;;5014624;28;20040;-49
2024/02/20 06:58:36;;;;;;;22.83;4.07;;;8.40;99.90;;;;;;5014863;28;20117;-53
2024/02/20 07:01:02;;;;;;;19.83;4.10;;;8.40;99.90;;;;;;5032405;28;20030;-54
2024/02/20 07:03:27;;;;;;;21.83;3.95;;;8.40;99.90;;;;;;5033041;28;20025;-55
2024/02/20 07:05:53;;;;;;;9.82;3.83;;;8.50;99.90;;;;;;5032252;28;20026;-56
2024/02/20 07:08:18;;;;;;;25.77;3.70;;;8.50;99.90;;;;;;5032338;28;20041;-52
2024/02/20 07:10:44;;;;;;;25.92;5.05;;;8.40;99.90;;;;;;5032437;28;20033;-56
2024/02/20 07:13:09;;;;;;;18.35;4.05;;;8.40;99.90;;;;;;5032374;28;20029;-54
2024/02/20 07:15:37;;;;;;;15.43;4.95;;;8.40;99.90;;;;;;5014276;28;20021;-49
2024/02/20 07:18:03;;;;;;;13.77;3.58;;;8.40;99.90;;;;;;5032225;28;20018;-52
2024/02/20 07:20:29;;;;;;;20.00;3.72;;;8.40;99.90;;;;;;5032064;28;20032;-49
2024/02/20 07:22:54;;;;;;;12.02;3.03;;;8.40;99.90;;;;;;5032010;28;20075;-52
2024/02/20 07:25:21;;;;;;;24.58;4.15;;;8.40;99.90;;;;;;5031854;28;20037;-55
2024/02/20 07:27:46;;;;;;;15.88;4.10;;;8.50;99.90;;;;;;5031702;28;20039;-51
2024/02/20 07:30:13;;;;;;;10.55;3.83;;;8.60;99.90;;;;;;5030946;28;20108;-53
2024/02/20 07:32:40;;;;;;;11.40;3.70;;;8.60;99.90;;;;;;5013978;28;20398;-51
2024/02/20 07:35:06;;;;;;;15.30;3.72;;;8.60;99.90;;;;;;5031428;28;20017;-51
2024/02/20 07:37:31;;;;;;;13.63;3.67;;;8.70;99.90;;;;;;5031626;28;20448;-52
2024/02/20 07:39:57;;;;;;;19.90;4.20;;;8.70;99.90;;;;;;5031605;28;20517;-51
2024/02/20 07:42:23;;;;;;;15.15;3.60;;;8.80;99.90;;;;;;5031702;28;20024;-50
2024/02/20 07:44:48;;;;;;;16.00;3.35;;;9.00;99.90;;;;;;5031607;28;20101;-51
2024/02/20 07:47:16;;;;;;;21.92;3.70;;;9.20;99.90;;;;;;5031606;28;20071;-53
2024/02/20 07:49:42;;;;;;;21.13;4.40;;;9.30;99.90;;;;;;5031621;28;20024;-53
2024/02/20 07:52:08;;;;;;;22.33;4.82;;;9.40;99.90;;;;;;5031581;28;20029;-50
2024/02/20 07:54:33;;;;;;;17.25;4.10;;;9.40;99.90;;;;;;5013751;28;20399;-53
2024/02/20 07:56:58;;;;;;;15.68;3.75;;;9.40;99.90;;;;;;5031312;28;20390;-51
2024/02/20 07:59:24;;;;;;;12.98;3.53;;;9.30;99.90;;;;;;5031587;28;20034;-52
2024/02/20 08:01:51;;;;;;;16.58;4.45;;;9.30;99.90;;;;;;5031356;28;20428;-53
2024/02/20 08:04:19;;;;;;;16.35;4.03;;;9.30;99.90;;;;;;5013573;28;20494;-51
2024/02/20 08:06:44;;;;;;;23.17;5.40;;;9.30;99.90;;;;;;5031367;28;20029;-50
2024/02/20 08:09:10;;;;;;;16.27;4.40;;;9.20;99.90;;;;;;5031337;28;20037;-54
2024/02/20 08:11:36;;;;;;;12.40;4.38;;;9.30;99.90;;;;;;5031296;28;20029;-53
2024/02/20 08:14:03;;;;;;;18.20;4.65;;;9.30;99.90;;;;;;5033561;28;20041;-51
2024/02/20 08:16:30;;;;;;;13.57;4.32;;;9.40;99.90;;;;;;5010028;28;20112;-49
2024/02/20 08:18:56;;;;;;;16.52;3.83;;;9.40;99.90;;;;;;5015297;28;20474;-51
2024/02/20 08:21:21;;;;;;;15.02;4.07;;;9.50;99.90;;;;;;5031229;28;20113;-53
2024/02/20 08:23:47;;;;;;;14.48;4.00;;;9.60;99.90;;;;;;5030473;28;20049;-52
2024/02/20 08:26:12;;;;;;;15.18;4.43;;;9.60;99.90;;;;;;5029093;28;20518;-51
2024/02/20 08:28:40;;;;;;;17.25;3.97;;;9.80;99.90;;;;;;5024878;28;20021;-50
2024/02/20 08:31:06;;;;;;;13.50;3.55;;;9.80;99.90;;;;;;5019679;28;20425;-49
2024/02/20 08:33:31;;;;;;;26.50;5.65;;;9.80;99.90;;;;;;5020842;28;20044;-55
2024/02/20 08:35:57;;;;;;;29.13;4.50;;;9.90;99.90;;;;;;5030990;28;20100;-52
2024/02/20 08:38:23;;;;;;;16.27;4.82;;;9.90;99.90;;;;;;5031062;28;20026;-51
2024/02/20 08:40:48;;;;;;;10.65;3.45;;;10.00;99.90;;;;;;5030275;28;20021;-49
2024/02/20 08:43:15;;;;;;;12.88;3.33;;;10.00;99.90;;;;;;5013982;28;20440;-51
2024/02/20 08:45:40;;;;;;;24.33;5.40;;;10.20;99.90;;;;;;5015051;28;20488;-53
2024/02/20 08:48:06;;;;;;;11.07;4.00;;;10.30;99.90;;;;;;5015203;28;20102;-54
2024/02/20 08:50:32;;;;;;;17.35;4.22;;;10.40;99.90;;;;;;5014882;28;20049;-51
2024/02/20 08:53:01;;;;;;;15.18;3.60;;;10.60;99.90;;;;;;5023823;28;20525;-54
2024/02/20 08:55:27;;;;;;;11.02;3.45;;;10.70;99.90;;;;;;5028227;28;20022;-51
2024/02/20 08:57:52;;;;;;;16.92;5.22;;;10.80;99.90;;;;;;5029022;28;20502;-52
2024/02/20 09:00:21;;;;;;;15.70;3.85;;;10.80;99.90;;;;;;5033750;28;20068;-54
2024/02/20 09:02:47;;;;;;;16.88;4.22;;;10.90;99.90;;;;;;5014827;28;20072;-51
2024/02/20 09:05:13;;;;;;;16.23;4.68;;;11.00;99.90;;;;;;5022324;28;20414;-53
2024/02/20 09:07:41;;;;;;;24.38;4.95;;;11.10;99.90;;;;;;5014665;28;20026;-52
2024/02/20 09:10:07;;;;;;;17.83;5.28;;;11.10;99.90;;;;;;5013530;28;20033;-52
2024/02/20 09:12:33;;;;;;;12.32;5.72;;;11.10;99.90;;;;;;5024115;28;20037;-53
2024/02/20 09:15:00;;;;;;;16.27;4.05;;;11.10;99.90;;;;;;5034683;28;20033;-55
2024/02/20 09:17:26;;;;;;;21.70;4.10;;;11.10;99.90;;;;;;5034625;28;20329;-56
2024/02/20 09:19:52;;;;;;;12.73;3.70;;;11.00;99.90;;;;;;5024601;28;20113;-50
2024/02/20 09:22:17;;;;;;;19.02;4.03;;;10.90;99.90;;;;;;5014186;28;20129;-52
2024/02/20 09:24:43;;;;;;;17.05;4.45;;;10.80;99.90;;;;;;5017989;28;20026;-52
2024/02/20 09:27:08;;;;;;;20.42;4.22;;;10.80;99.90;;;;;;5014392;28;20034;-54
2024/02/20 09:29:34;;;;;;;24.85;6.05;;;10.80;99.90;;;;;;5014441;28;20045;-54
2024/02/20 09:32:00;;;;;;;22.95;5.03;;;11.20;99.90;;;;;;5014237;28;20414;-48
2024/02/20 09:34:26;;;;;;;9.82;3.95;;;;;;;;;;5029235;28;20032;-53
2024/02/20 09:36:52;;;;;;;14.32;4.15;;;12.70;99.90;;;;;;5034120;28;20025;-55
2024/02/20 09:39:21;;;;;;;16.58;4.07;;;12.60;99.90;;;;;;5034337;28;20037;-55
2024/02/20 09:41:52;;;;;;;13.23;4.10;;;12.80;99.90;;;;;;5034184;28;20025;-57
2024/02/20 09:44:19;;;;;;;18.92;5.72;;;12.90;99.90;;;;;;5034125;28;20030;-54
2024/02/20 09:46:54;;;;;;;16.65;4.10;;;12.70;99.90;;;;;;5016440;28;20040;-54
2024/02/20 09:49:20;;;;;;;12.82;3.97;;;12.60;99.90;;;;;;5033666;28;20113;-50
2024/02/20 09:51:46;;;;;;;17.25;3.80;;;12.70;99.90;;;;;;5032976;28;20050;-57
2024/02/20 09:54:14;;;;;;;18.08;5.07;;;13.10;99.90;;;;;;5021510;28;20440;-55
2024/02/20 09:56:41;;;;;;;12.82;3.90;;;13.60;99.90;;;;;;5033767;28;20032;-56
2024/02/20 09:59:10;;;;;;;14.63;4.15;;;14.10;99.90;;;;;;5034392;28;20029;-55
2024/02/20 10:01:37;;;;;;;13.80;4.43;;;14.60;99.90;;;;;;5034122;28;20099;-51
2024/02/20 10:04:05;;;;;;;14.75;4.13;;;14.60;99.90;;;;;;5031949;28;20461;-51
2024/02/20 10:06:33;;;;;;;19.08;5.10;;;;;;;;;;5033303;28;20100;-52
2024/02/20 10:08:59;;;;;;;12.57;3.53;;;;;;;;;;5033502;28;20032;-56
2024/02/20 10:11:25;;;;;;;14.68;3.80;;;;;;;;;;5025335;28;20453;-57
2024/02/20 10:13:51;;;;;;;13.77;3.63;;;;;;;;;;5033348;28;20026;-55
2024/02/20 10:16:18;;;;;;;16.52;4.25;;;;;;;;;;5026080;28;20045;-55
2024/02/20 10:18:54;;;;;;;15.75;3.83;;;15.20;99.90;;;;;;5026790;28;20529;-53
2024/02/20 10:21:20;;;;;;;12.98;4.85;;;14.90;99.90;;;;;;5022349;28;20022;-54
2024/02/20 10:23:45;;;;;;;24.08;3.55;;;14.70;99.90;;;;;;5014363;28;20034;-56
2024/02/20 10:26:11;;;;;;;14.90;3.38;;;14.60;99.90;;;;;;5027703;28;20030;-57
2024/02/20 10:28:37;;;;;;;15.25;3.95;;;14.40;99.90;;;;;;5030659;28;20030;-56
2024/02/20 10:31:03;;;;;;;14.75;3.78;;;14.00;99.90;;;;;;5031418;28;20033;-57
2024/02/20 10:33:28;;;;;;;14.50;4.50;;;13.80;99.90;;;;;;5022765;28;20313;-57
2024/02/20 10:36:04;;;;;;;33.42;16.33;;;13.90;99.90;;;;;;5012712;28;20129;-53
2024/02/20 10:38:30;;;;;;;22.55;8.57;;;13.70;99.90;;;;;;5018423;28;20026;-55
2024/02/20 10:40:57;;;;;;;16.70;5.30;;;13.50;99.90;;;;;;5014879;28;20037;-53
2024/02/20 10:43:25;;;;;;;11.98;3.08;;;13.40;99.90;;;;;;5032679;28;20056;-55
2024/02/20 10:45:51;;;;;;;16.02;3.70;;;13.30;99.90;;;;;;5032513;28;20064;-58
2024/02/20 10:48:20;;;;;;;12.35;4.25;;;13.30;99.90;;;;;;5032798;28;20033;-52
2024/02/20 10:50:46;;;;;;;12.55;4.32;;;13.30;99.90;;;;;;5032768;28;20025;-57
2024/02/20 10:53:14;;;;;;;17.00;4.07;;;13.20;99.90;;;;;;5032811;28;20128;-55
2024/02/20 10:55:42;;;;;;;10.77;3.28;;;13.00;99.90;;;;;;5014546;28;20025;-56
2024/02/20 10:58:15;;;;;;;14.73;4.30;;;12.90;99.90;;;;;;5032524;28;20068;-54
2024/02/20 11:00:44;;;;;;;9.07;3.25;;;12.90;99.90;;;;;;5030193;28;20036;-52
2024/02/20 11:03:10;;;;;;;11.43;2.85;;;12.90;99.90;;;;;;5021385;28;20036;-50
2024/02/20 11:05:36;;;;;;;19.98;4.47;;;12.60;99.90;;;;;;5014080;28;20055;-58
2024/02/20 11:08:09;;;;;;;14.73;4.22;;;12.50;99.90;;;;;;5032574;28;20022;-54
2024/02/20 11:10:36;;;;;;;15.00;3.22;;;12.50;99.90;;;;;;5014301;28;20426;-56
2024/02/20 11:13:20;;;;;;;12.57;3.85;;;12.60;99.90;;;;;;5031877;28;20036;-52
2024/02/20 11:15:46;;;;;;;15.68;4.50;;;12.80;99.90;;;;;;5031854;28;20112;-51
2024/02/20 11:18:16;;;;;;;7.80;2.75;;;12.80;99.90;;;;;;5031826;28;20121;-54
2024/02/20 11:20:43;;;;;;;11.68;3.13;;;12.70;99.90;;;;;;5017071;28;20095;-49
2024/02/20 11:23:09;;;;;;;16.33;2.63;;;12.60;99.90;;;;;;5031864;28;20100;-55
2024/02/20 11:25:37;;;;;;;12.05;3.38;;;12.50;99.90;;;;;;5031646;28;20480;-54
2024/02/20 11:28:14;;;;;;;17.13;2.88;;;12.20;99.90;;;;;;5032325;28;20080;-54
2024/02/20 11:30:40;;;;;;;15.02;2.63;;;12.30;99.90;;;;;;5014862;28;20034;-55
2024/02/20 11:33:16;;;;;;;14.38;2.97;;;12.10;99.90;;;;;;5032471;28;20457;-54
2024/02/20 11:35:44;;;;;;;14.95;3.33;;;12.20;99.90;;;;;;5014353;28;20029;-51
2024/02/20 11:38:11;;;;;;;12.70;3.72;;;12.20;99.90;;;;;;5032327;28;20021;-55
2024/02/20 11:40:37;;;;;;;16.88;3.10;;;12.20;99.90;;;;;;5032001;28;20029;-54
2024/02/20 11:43:04;;;;;;;17.13;3.15;;;12.30;99.90;;;;;;5031686;28;20395;-53
2024/02/20 11:45:31;;;;;;;8.60;3.10;;;12.30;99.90;;;;;;5031534;28;20082;-54
2024/02/20 11:48:02;;;;;;;13.95;3.15;;;12.40;99.90;;;;;;5013897;28;20098;-56
2024/02/20 11:50:29;;;;;;;22.70;4.22;;;12.50;99.90;;;;;;5031893;28;20025;-58
2024/02/20 11:53:06;;;;;;;11.48;3.08;;;12.60;99.90;;;;;;5031527;28;20071;-54
2024/02/20 11:55:32;;;;;;;16.52;3.33;;;12.80;99.90;;;;;;5031802;28;20037;-53
2024/02/20 11:57:59;;;;;;;22.35;11.10;;;13.00;99.90;;;;;;5031813;28;20053;-56
2024/02/20 12:00:27;;;;;;;51.22;27.15;;;13.10;99.90;;;;;;5031871;28;20022;-55
2024/02/20 12:02:53;;;;;;;17.92;4.68;;;13.00;99.90;;;;;;5031565;28;20052;-55
2024/02/20 12:05:26;;;;;;;9.57;2.58;;;13.00;99.90;;;;;;5031484;28;20398;-55
2024/02/20 12:07:53;;;;;;;18.38;4.18;;;12.90;99.90;;;;;;5022902;28;20088;-54
2024/02/20 12:10:19;;;;;;;15.60;4.13;;;13.00;99.90;;;;;;5026832;28;20025;-54
2024/02/20 12:12:45;;;;;;;14.02;3.22;;;12.80;99.90;;;;;;5028506;28;20021;-53
2024/02/20 12:15:11;;;;;;;13.45;3.40;;;12.70;99.90;;;;;;5011308;28;20101;-56
2024/02/20 12:17:45;;;;;;;15.07;3.28;;;12.60;99.90;;;;;;5030664;28;20451;-51
2024/02/20 12:20:12;;;;;;;14.45;2.85;;;12.60;99.90;;;;;;5031363;28;20028;-52
2024/02/20 12:22:42;;;;;;;10.60;3.80;;;12.50;99.90;;;;;;5031165;28;20506;-49
2024/02/20 12:25:10;;;;;;;11.77;3.60;;;12.50;99.90;;;;;;5026431;28;20022;-53
2024/02/20 12:27:36;;;;;;;21.50;3.80;;;12.50;99.90;;;;;;5014787;28;20026;-53
2024/02/20 12:30:03;;;;;;;9.30;3.25;;;12.50;99.90;;;;;;5009800;28;20502;-56
2024/02/20 12:32:28;;;;;;;10.00;2.90;;;12.60;99.90;;;;;;5029563;23;20042;-50
2024/02/20 12:34:54;;;;;;;13.55;3.25;;;12.60;99.90;;;;;;5010544;28;20406;-51
2024/02/20 12:37:23;;;;;;;12.95;2.83;;;12.50;99.90;;;;;;4990803;28;20468;-50
2024/02/20 12:39:49;;;;;;;12.63;3.22;;;12.50;99.90;;;;;;4994205;28;20026;-51
2024/02/20 12:42:16;;;;;;;16.17;3.28;;;12.50;99.90;;;;;;5011047;28;20407;-48